sensor_id;sensor_type;location;lat;lon;timestamp;P1;durP1;ratioP1;P2;durP2;ratioP2
727;SDS011;347;48.780;9.158;2022-07-29T00:00:43;21.77;;;20.50;;
727;SDS011;347;48.780;9.158;2022-07-29T00:03:12;21.63;;;20.83;;
727;SDS011;347;48.780;9.158;2022-07-29T00:05:39;22.53;;;21.50;;
727;SDS011;347;48.780;9.158;2022-07-29T00:08:05;21.17;;;20.17;;
727;SDS011;347;48.780;9.158;2022-07-29T00:10:31;21.90;;;20.90;;
727;SDS011;347;48.780;9.158;2022-07-29T00:12:57;23.27;;;21.80;;
727;SDS011;347;48.780;9.158;2022-07-29T00:15:23;23.07;;;21.70;;
727;SDS011;347;48.780;9.158;2022-07-29T00:17:49;23.83;;;22.73;;
727;SDS011;347;48.780;9.158;2022-07-29T00:20:15;22.23;;;21.07;;
727;SDS011;347;48.780;9.158;2022-07-29T00:22:40;23.50;;;22.30;;
727;SDS011;347;48.780;9.158;2022-07-29T00:25:06;23.40;;;22.30;;
727;SDS011;347;48.780;9.158;2022-07-29T00:27:33;22.40;;;21.30;;
727;SDS011;347;48.780;9.158;2022-07-29T00:30:00;23.00;;;22.00;;
727;SDS011;347;48.780;9.158;2022-07-29T00:32:26;21.83;;;20.80;;
727;SDS011;347;48.780;9.158;2022-07-29T00:34:51;22.80;;;21.70;;
727;SDS011;347;48.780;9.158;2022-07-29T00:37:35;21.90;;;20.90;;
727;SDS011;347;48.780;9.158;2022-07-29T00:40:02;21.80;;;20.80;;
727;SDS011;347;48.780;9.158;2022-07-29T00:42:28;22.67;;;21.50;;
727;SDS011;347;48.780;9.158;2022-07-29T00:44:53;22.40;;;21.27;;
727;SDS011;347;48.780;9.158;2022-07-29T00:47:19;23.03;;;21.70;;
727;SDS011;347;48.780;9.158;2022-07-29T00:49:45;22.97;;;21.87;;
727;SDS011;347;48.780;9.158;2022-07-29T00:52:11;21.67;;;20.77;;
727;SDS011;347;48.780;9.158;2022-07-29T00:54:38;22.10;;;20.90;;
727;SDS011;347;48.780;9.158;2022-07-29T00:57:05;22.30;;;21.23;;
727;SDS011;347;48.780;9.158;2022-07-29T00:59:32;22.67;;;21.37;;
727;SDS011;347;48.780;9.158;2022-07-29T01:01:59;22.10;;;21.00;;
727;SDS011;347;48.780;9.158;2022-07-29T01:04:24;21.87;;;20.97;;
727;SDS011;347;48.780;9.158;2022-07-29T01:06:51;22.23;;;21.23;;
727;SDS011;347;48.780;9.158;2022-07-29T01:09:18;21.43;;;20.33;;
727;SDS011;347;48.780;9.158;2022-07-29T01:11:44;21.30;;;20.40;;
727;SDS011;347;48.780;9.158;2022-07-29T01:14:12;22.23;;;20.90;;
727;SDS011;347;48.780;9.158;2022-07-29T01:16:46;22.20;;;21.30;;
727;SDS011;347;48.780;9.158;2022-07-29T01:30:42;23.03;;;22.03;;
727;SDS011;347;48.780;9.158;2022-07-29T01:33:13;21.00;;;20.10;;
727;SDS011;347;48.780;9.158;2022-07-29T01:36:03;20.50;;;19.43;;
727;SDS011;347;48.780;9.158;2022-07-29T01:38:38;21.20;;;20.20;;
727;SDS011;347;48.780;9.158;2022-07-29T01:41:07;22.33;;;21.30;;
727;SDS011;347;48.780;9.158;2022-07-29T01:43:44;22.00;;;21.10;;
727;SDS011;347;48.780;9.158;2022-07-29T01:46:17;22.23;;;21.17;;
727;SDS011;347;48.780;9.158;2022-07-29T01:48:53;20.20;;;19.30;;
727;SDS011;347;48.780;9.158;2022-07-29T01:51:24;21.07;;;20.27;;
727;SDS011;347;48.780;9.158;2022-07-29T01:57:07;21.37;;;20.37;;
727;SDS011;347;48.780;9.158;2022-07-29T01:59:36;21.93;;;20.83;;
727;SDS011;347;48.780;9.158;2022-07-29T02:02:03;20.63;;;19.83;;
727;SDS011;347;48.780;9.158;2022-07-29T02:04:31;22.77;;;21.77;;
727;SDS011;347;48.780;9.158;2022-07-29T02:07:02;21.97;;;21.07;;
727;SDS011;347;48.780;9.158;2022-07-29T02:09:30;22.43;;;21.50;;
727;SDS011;347;48.780;9.158;2022-07-29T02:11:58;22.17;;;21.00;;
727;SDS011;347;48.780;9.158;2022-07-29T02:14:26;21.23;;;20.33;;
727;SDS011;347;48.780;9.158;2022-07-29T02:16:54;21.83;;;20.93;;
727;SDS011;347;48.780;9.158;2022-07-29T02:19:22;21.10;;;20.10;;
727;SDS011;347;48.780;9.158;2022-07-29T02:21:51;21.40;;;20.50;;
727;SDS011;347;48.780;9.158;2022-07-29T02:24:19;22.03;;;21.23;;
727;SDS011;347;48.780;9.158;2022-07-29T02:26:47;23.10;;;22.20;;
727;SDS011;347;48.780;9.158;2022-07-29T02:29:14;23.07;;;22.17;;
727;SDS011;347;48.780;9.158;2022-07-29T02:31:41;22.40;;;21.50;;
727;SDS011;347;48.780;9.158;2022-07-29T02:34:12;23.40;;;22.40;;
727;SDS011;347;48.780;9.158;2022-07-29T02:36:39;22.07;;;21.17;;
727;SDS011;347;48.780;9.158;2022-07-29T02:39:06;22.00;;;21.00;;
727;SDS011;347;48.780;9.158;2022-07-29T02:41:35;21.90;;;20.90;;
727;SDS011;347;48.780;9.158;2022-07-29T02:44:17;21.30;;;20.50;;
727;SDS011;347;48.780;9.158;2022-07-29T02:46:52;22.07;;;21.17;;
727;SDS011;347;48.780;9.158;2022-07-29T02:54:44;21.87;;;20.97;;
727;SDS011;347;48.780;9.158;2022-07-29T02:57:27;20.83;;;19.97;;
727;SDS011;347;48.780;9.158;2022-07-29T02:59:58;21.80;;;20.80;;
727;SDS011;347;48.780;9.158;2022-07-29T03:02:29;22.53;;;21.53;;
727;SDS011;347;48.780;9.158;2022-07-29T03:05:00;22.13;;;21.23;;
727;SDS011;347;48.780;9.158;2022-07-29T03:07:28;21.37;;;20.43;;
727;SDS011;347;48.780;9.158;2022-07-29T03:09:55;22.73;;;21.73;;
727;SDS011;347;48.780;9.158;2022-07-29T03:12:22;23.07;;;22.17;;
727;SDS011;347;48.780;9.158;2022-07-29T03:14:48;22.73;;;21.70;;
727;SDS011;347;48.780;9.158;2022-07-29T03:17:14;22.77;;;21.77;;
727;SDS011;347;48.780;9.158;2022-07-29T03:19:41;21.90;;;21.00;;
727;SDS011;347;48.780;9.158;2022-07-29T03:22:08;20.63;;;19.73;;
727;SDS011;347;48.780;9.158;2022-07-29T03:24:35;20.03;;;19.17;;
727;SDS011;347;48.780;9.158;2022-07-29T03:27:01;21.27;;;20.40;;
727;SDS011;347;48.780;9.158;2022-07-29T03:29:27;20.87;;;19.97;;
727;SDS011;347;48.780;9.158;2022-07-29T03:31:53;21.23;;;20.43;;
727;SDS011;347;48.780;9.158;2022-07-29T03:34:19;23.70;;;22.70;;
727;SDS011;347;48.780;9.158;2022-07-29T03:36:46;22.70;;;21.70;;
727;SDS011;347;48.780;9.158;2022-07-29T03:39:12;23.20;;;22.20;;
727;SDS011;347;48.780;9.158;2022-07-29T03:41:43;23.67;;;22.77;;
727;SDS011;347;48.780;9.158;2022-07-29T03:44:12;23.60;;;22.70;;
727;SDS011;347;48.780;9.158;2022-07-29T03:46:40;24.07;;;22.97;;
727;SDS011;347;48.780;9.158;2022-07-29T03:49:08;22.50;;;21.20;;
727;SDS011;347;48.780;9.158;2022-07-29T03:51:35;22.50;;;21.50;;
727;SDS011;347;48.780;9.158;2022-07-29T03:54:01;21.40;;;20.50;;
727;SDS011;347;48.780;9.158;2022-07-29T03:56:28;24.07;;;23.07;;
727;SDS011;347;48.780;9.158;2022-07-29T03:58:55;22.40;;;21.50;;
727;SDS011;347;48.780;9.158;2022-07-29T04:01:21;25.13;;;23.90;;
727;SDS011;347;48.780;9.158;2022-07-29T04:03:48;25.47;;;24.27;;
727;SDS011;347;48.780;9.158;2022-07-29T04:06:16;24.40;;;23.30;;
727;SDS011;347;48.780;9.158;2022-07-29T04:08:41;25.83;;;24.63;;
727;SDS011;347;48.780;9.158;2022-07-29T04:11:07;23.03;;;22.13;;
727;SDS011;347;48.780;9.158;2022-07-29T04:13:33;23.70;;;22.17;;
727;SDS011;347;48.780;9.158;2022-07-29T04:15:59;22.00;;;21.20;;
727;SDS011;347;48.780;9.158;2022-07-29T04:18:25;23.70;;;22.60;;
727;SDS011;347;48.780;9.158;2022-07-29T04:20:50;24.07;;;23.07;;
727;SDS011;347;48.780;9.158;2022-07-29T04:23:16;24.57;;;23.57;;
727;SDS011;347;48.780;9.158;2022-07-29T04:25:42;23.80;;;22.80;;
727;SDS011;347;48.780;9.158;2022-07-29T04:28:08;23.50;;;22.47;;
727;SDS011;347;48.780;9.158;2022-07-29T04:30:35;24.17;;;23.13;;
727;SDS011;347;48.780;9.158;2022-07-29T04:33:02;24.17;;;23.17;;
727;SDS011;347;48.780;9.158;2022-07-29T04:35:30;23.77;;;22.67;;
727;SDS011;347;48.780;9.158;2022-07-29T04:37:58;22.63;;;21.67;;
727;SDS011;347;48.780;9.158;2022-07-29T04:40:24;23.30;;;22.30;;
727;SDS011;347;48.780;9.158;2022-07-29T04:42:50;24.50;;;23.50;;
727;SDS011;347;48.780;9.158;2022-07-29T04:45:15;25.03;;;24.03;;
727;SDS011;347;48.780;9.158;2022-07-29T04:47:41;25.00;;;24.00;;
727;SDS011;347;48.780;9.158;2022-07-29T04:50:07;24.90;;;23.80;;
727;SDS011;347;48.780;9.158;2022-07-29T04:52:34;25.13;;;23.80;;
727;SDS011;347;48.780;9.158;2022-07-29T04:55:00;24.47;;;23.37;;
727;SDS011;347;48.780;9.158;2022-07-29T04:57:26;22.17;;;21.17;;
727;SDS011;347;48.780;9.158;2022-07-29T04:59:52;22.50;;;21.60;;
727;SDS011;347;48.780;9.158;2022-07-29T05:02:20;22.33;;;21.43;;
727;SDS011;347;48.780;9.158;2022-07-29T05:04:47;22.67;;;21.67;;
727;SDS011;347;48.780;9.158;2022-07-29T05:07:13;23.87;;;22.87;;
727;SDS011;347;48.780;9.158;2022-07-29T05:09:39;24.73;;;23.43;;
727;SDS011;347;48.780;9.158;2022-07-29T05:12:05;24.10;;;23.10;;
727;SDS011;347;48.780;9.158;2022-07-29T05:14:32;23.70;;;22.60;;
727;SDS011;347;48.780;9.158;2022-07-29T05:16:58;23.80;;;22.70;;
727;SDS011;347;48.780;9.158;2022-07-29T05:19:24;23.60;;;22.60;;
727;SDS011;347;48.780;9.158;2022-07-29T05:21:49;22.60;;;21.70;;
727;SDS011;347;48.780;9.158;2022-07-29T05:24:15;22.10;;;21.20;;
727;SDS011;347;48.780;9.158;2022-07-29T05:26:41;23.23;;;22.13;;
727;SDS011;347;48.780;9.158;2022-07-29T05:29:07;21.90;;;21.00;;
727;SDS011;347;48.780;9.158;2022-07-29T05:31:33;21.60;;;20.70;;
727;SDS011;347;48.780;9.158;2022-07-29T05:33:59;22.63;;;21.73;;
727;SDS011;347;48.780;9.158;2022-07-29T05:36:25;23.80;;;22.83;;
727;SDS011;347;48.780;9.158;2022-07-29T05:38:51;24.03;;;23.03;;
727;SDS011;347;48.780;9.158;2022-07-29T05:41:17;22.30;;;21.40;;
727;SDS011;347;48.780;9.158;2022-07-29T05:43:44;25.03;;;24.03;;
727;SDS011;347;48.780;9.158;2022-07-29T05:46:10;23.50;;;22.53;;
727;SDS011;347;48.780;9.158;2022-07-29T05:48:36;22.20;;;21.30;;
727;SDS011;347;48.780;9.158;2022-07-29T05:51:02;21.57;;;20.60;;
727;SDS011;347;48.780;9.158;2022-07-29T05:53:28;21.87;;;20.97;;
727;SDS011;347;48.780;9.158;2022-07-29T05:55:53;21.33;;;20.53;;
727;SDS011;347;48.780;9.158;2022-07-29T05:58:19;22.43;;;21.20;;
727;SDS011;347;48.780;9.158;2022-07-29T06:00:48;21.27;;;20.37;;
727;SDS011;347;48.780;9.158;2022-07-29T06:03:14;21.80;;;20.90;;
727;SDS011;347;48.780;9.158;2022-07-29T06:05:40;23.20;;;22.20;;
727;SDS011;347;48.780;9.158;2022-07-29T06:08:06;23.63;;;22.63;;
727;SDS011;347;48.780;9.158;2022-07-29T06:10:32;22.70;;;21.80;;
727;SDS011;347;48.780;9.158;2022-07-29T06:13:00;22.90;;;22.00;;
727;SDS011;347;48.780;9.158;2022-07-29T06:15:25;23.60;;;22.63;;
727;SDS011;347;48.780;9.158;2022-07-29T06:17:51;22.83;;;21.93;;
727;SDS011;347;48.780;9.158;2022-07-29T06:20:17;21.77;;;20.73;;
727;SDS011;347;48.780;9.158;2022-07-29T06:22:43;20.90;;;20.00;;
727;SDS011;347;48.780;9.158;2022-07-29T06:25:09;21.87;;;20.77;;
727;SDS011;347;48.780;9.158;2022-07-29T06:27:35;23.53;;;22.53;;
727;SDS011;347;48.780;9.158;2022-07-29T06:30:00;22.23;;;21.23;;
727;SDS011;347;48.780;9.158;2022-07-29T06:32:27;21.60;;;20.70;;
727;SDS011;347;48.780;9.158;2022-07-29T06:34:52;21.40;;;20.50;;
727;SDS011;347;48.780;9.158;2022-07-29T06:37:24;23.00;;;21.60;;
727;SDS011;347;48.780;9.158;2022-07-29T06:39:52;21.27;;;20.37;;
727;SDS011;347;48.780;9.158;2022-07-29T06:42:41;21.90;;;21.00;;
727;SDS011;347;48.780;9.158;2022-07-29T06:45:08;23.67;;;22.67;;
727;SDS011;347;48.780;9.158;2022-07-29T06:47:34;22.80;;;21.90;;
727;SDS011;347;48.780;9.158;2022-07-29T06:50:00;22.63;;;21.63;;
727;SDS011;347;48.780;9.158;2022-07-29T06:52:25;22.40;;;21.50;;
727;SDS011;347;48.780;9.158;2022-07-29T06:54:51;23.17;;;22.17;;
727;SDS011;347;48.780;9.158;2022-07-29T06:57:17;22.90;;;21.90;;
727;SDS011;347;48.780;9.158;2022-07-29T06:59:43;21.93;;;20.93;;
727;SDS011;347;48.780;9.158;2022-07-29T07:02:09;21.40;;;20.40;;
727;SDS011;347;48.780;9.158;2022-07-29T07:04:35;21.00;;;20.20;;
727;SDS011;347;48.780;9.158;2022-07-29T07:07:01;21.67;;;20.77;;
727;SDS011;347;48.780;9.158;2022-07-29T07:09:26;21.10;;;20.20;;
727;SDS011;347;48.780;9.158;2022-07-29T07:12:01;21.87;;;20.83;;
727;SDS011;347;48.780;9.158;2022-07-29T07:14:26;22.43;;;21.33;;
727;SDS011;347;48.780;9.158;2022-07-29T07:16:52;22.50;;;21.50;;
727;SDS011;347;48.780;9.158;2022-07-29T07:19:18;21.23;;;20.33;;
727;SDS011;347;48.780;9.158;2022-07-29T07:21:44;21.50;;;20.50;;
727;SDS011;347;48.780;9.158;2022-07-29T07:24:10;21.73;;;20.83;;
727;SDS011;347;48.780;9.158;2022-07-29T07:26:45;21.97;;;20.93;;
727;SDS011;347;48.780;9.158;2022-07-29T07:29:17;24.43;;;23.47;;
727;SDS011;347;48.780;9.158;2022-07-29T07:31:59;23.53;;;22.53;;
727;SDS011;347;48.780;9.158;2022-07-29T07:34:33;23.10;;;21.67;;
727;SDS011;347;48.780;9.158;2022-07-29T07:37:27;23.70;;;22.60;;
727;SDS011;347;48.780;9.158;2022-07-29T07:40:03;23.50;;;22.40;;
727;SDS011;347;48.780;9.158;2022-07-29T07:42:45;21.60;;;20.80;;
727;SDS011;347;48.780;9.158;2022-07-29T07:45:55;22.93;;;21.93;;
727;SDS011;347;48.780;9.158;2022-07-29T07:48:46;21.70;;;20.80;;
727;SDS011;347;48.780;9.158;2022-07-29T07:51:36;21.23;;;20.07;;
727;SDS011;347;48.780;9.158;2022-07-29T07:54:03;21.50;;;20.57;;
727;SDS011;347;48.780;9.158;2022-07-29T07:56:32;21.60;;;20.60;;
727;SDS011;347;48.780;9.158;2022-07-29T07:59:07;21.33;;;20.43;;
727;SDS011;347;48.780;9.158;2022-07-29T08:01:33;21.30;;;20.40;;
727;SDS011;347;48.780;9.158;2022-07-29T08:04:21;21.63;;;20.63;;
727;SDS011;347;48.780;9.158;2022-07-29T08:06:53;22.97;;;21.50;;
727;SDS011;347;48.780;9.158;2022-07-29T08:09:32;20.90;;;20.00;;
727;SDS011;347;48.780;9.158;2022-07-29T08:12:04;21.40;;;20.20;;
727;SDS011;347;48.780;9.158;2022-07-29T08:14:43;21.17;;;20.27;;
727;SDS011;347;48.780;9.158;2022-07-29T08:17:23;21.00;;;19.80;;
727;SDS011;347;48.780;9.158;2022-07-29T08:20:02;23.43;;;22.07;;
727;SDS011;347;48.780;9.158;2022-07-29T08:22:44;21.43;;;20.50;;
727;SDS011;347;48.780;9.158;2022-07-29T08:25:13;21.33;;;20.40;;
727;SDS011;347;48.780;9.158;2022-07-29T08:27:42;20.60;;;19.63;;
727;SDS011;347;48.780;9.158;2022-07-29T08:30:23;21.27;;;20.47;;
727;SDS011;347;48.780;9.158;2022-07-29T08:32:55;22.37;;;21.17;;
727;SDS011;347;48.780;9.158;2022-07-29T08:35:22;22.13;;;21.03;;
727;SDS011;347;48.780;9.158;2022-07-29T08:37:49;22.53;;;21.47;;
727;SDS011;347;48.780;9.158;2022-07-29T08:40:20;22.03;;;21.03;;
727;SDS011;347;48.780;9.158;2022-07-29T08:42:57;20.90;;;20.00;;
727;SDS011;347;48.780;9.158;2022-07-29T08:49:16;19.70;;;18.77;;
727;SDS011;347;48.780;9.158;2022-07-29T08:55:52;21.03;;;20.07;;
727;SDS011;347;48.780;9.158;2022-07-29T08:58:26;20.43;;;19.53;;
727;SDS011;347;48.780;9.158;2022-07-29T09:00:57;20.17;;;19.27;;
727;SDS011;347;48.780;9.158;2022-07-29T09:03:31;20.43;;;19.33;;
727;SDS011;347;48.780;9.158;2022-07-29T09:05:59;19.90;;;19.10;;
727;SDS011;347;48.780;9.158;2022-07-29T09:08:26;20.50;;;19.70;;
727;SDS011;347;48.780;9.158;2022-07-29T09:10:55;21.90;;;20.60;;
727;SDS011;347;48.780;9.158;2022-07-29T09:13:22;20.50;;;19.40;;
727;SDS011;347;48.780;9.158;2022-07-29T09:15:48;20.30;;;19.50;;
727;SDS011;347;48.780;9.158;2022-07-29T09:21:00;19.93;;;19.03;;
727;SDS011;347;48.780;9.158;2022-07-29T09:26:31;19.60;;;18.40;;
727;SDS011;347;48.780;9.158;2022-07-29T09:28:58;19.53;;;18.63;;
727;SDS011;347;48.780;9.158;2022-07-29T09:31:34;19.83;;;18.63;;
727;SDS011;347;48.780;9.158;2022-07-29T09:34:02;19.50;;;18.40;;
727;SDS011;347;48.780;9.158;2022-07-29T09:36:30;20.97;;;19.27;;
727;SDS011;347;48.780;9.158;2022-07-29T09:38:59;18.70;;;17.90;;
727;SDS011;347;48.780;9.158;2022-07-29T09:41:26;20.10;;;18.80;;
727;SDS011;347;48.780;9.158;2022-07-29T09:43:53;19.53;;;18.63;;
727;SDS011;347;48.780;9.158;2022-07-29T09:46:20;19.93;;;18.77;;
727;SDS011;347;48.780;9.158;2022-07-29T09:48:45;19.13;;;18.10;;
727;SDS011;347;48.780;9.158;2022-07-29T09:51:34;19.70;;;18.80;;
727;SDS011;347;48.780;9.158;2022-07-29T09:54:00;19.87;;;18.90;;
727;SDS011;347;48.780;9.158;2022-07-29T09:56:38;19.80;;;18.63;;
727;SDS011;347;48.780;9.158;2022-07-29T09:59:05;20.43;;;19.27;;
727;SDS011;347;48.780;9.158;2022-07-29T10:01:32;22.13;;;20.50;;
727;SDS011;347;48.780;9.158;2022-07-29T10:03:58;21.00;;;20.20;;
727;SDS011;347;48.780;9.158;2022-07-29T10:06:27;21.27;;;20.37;;
727;SDS011;347;48.780;9.158;2022-07-29T10:08:53;21.23;;;20.10;;
727;SDS011;347;48.780;9.158;2022-07-29T10:11:19;20.90;;;19.80;;
727;SDS011;347;48.780;9.158;2022-07-29T10:13:46;19.90;;;18.67;;
727;SDS011;347;48.780;9.158;2022-07-29T10:16:14;20.10;;;19.03;;
727;SDS011;347;48.780;9.158;2022-07-29T10:18:41;20.63;;;18.97;;
727;SDS011;347;48.780;9.158;2022-07-29T10:21:08;20.00;;;19.00;;
727;SDS011;347;48.780;9.158;2022-07-29T10:23:35;19.20;;;18.40;;
727;SDS011;347;48.780;9.158;2022-07-29T10:26:01;19.60;;;18.60;;
727;SDS011;347;48.780;9.158;2022-07-29T10:28:29;19.43;;;18.43;;
727;SDS011;347;48.780;9.158;2022-07-29T10:30:59;20.90;;;19.90;;
727;SDS011;347;48.780;9.158;2022-07-29T10:33:41;19.70;;;18.60;;
727;SDS011;347;48.780;9.158;2022-07-29T10:41:47;19.60;;;18.57;;
727;SDS011;347;48.780;9.158;2022-07-29T10:44:18;21.00;;;19.27;;
727;SDS011;347;48.780;9.158;2022-07-29T10:46:45;20.43;;;19.10;;
727;SDS011;347;48.780;9.158;2022-07-29T10:49:19;21.10;;;20.00;;
727;SDS011;347;48.780;9.158;2022-07-29T10:54:39;19.50;;;18.50;;
727;SDS011;347;48.780;9.158;2022-07-29T11:05:17;20.17;;;19.23;;
727;SDS011;347;48.780;9.158;2022-07-29T11:10:44;23.97;;;22.57;;
727;SDS011;347;48.780;9.158;2022-07-29T11:13:10;23.60;;;22.40;;
727;SDS011;347;48.780;9.158;2022-07-29T11:15:52;25.60;;;23.50;;
727;SDS011;347;48.780;9.158;2022-07-29T11:21:41;28.03;;;26.43;;
727;SDS011;347;48.780;9.158;2022-07-29T11:24:16;25.83;;;23.43;;
727;SDS011;347;48.780;9.158;2022-07-29T11:26:44;27.17;;;25.53;;
727;SDS011;347;48.780;9.158;2022-07-29T11:29:20;27.20;;;25.23;;
727;SDS011;347;48.780;9.158;2022-07-29T11:32:08;26.43;;;24.93;;
727;SDS011;347;48.780;9.158;2022-07-29T11:34:36;26.00;;;24.60;;
727;SDS011;347;48.780;9.158;2022-07-29T11:39:38;30.57;;;28.83;;
727;SDS011;347;48.780;9.158;2022-07-29T11:47:35;27.70;;;25.90;;
727;SDS011;347;48.780;9.158;2022-07-29T11:50:12;26.73;;;25.27;;
727;SDS011;347;48.780;9.158;2022-07-29T11:52:51;27.37;;;25.77;;
727;SDS011;347;48.780;9.158;2022-07-29T11:55:18;27.60;;;26.07;;
727;SDS011;347;48.780;9.158;2022-07-29T12:02:53;27.23;;;25.63;;
727;SDS011;347;48.780;9.158;2022-07-29T12:05:20;28.47;;;27.17;;
727;SDS011;347;48.780;9.158;2022-07-29T12:07:49;25.53;;;24.13;;
727;SDS011;347;48.780;9.158;2022-07-29T12:10:15;26.83;;;25.10;;
727;SDS011;347;48.780;9.158;2022-07-29T12:12:40;26.77;;;25.27;;
727;SDS011;347;48.780;9.158;2022-07-29T12:15:10;26.47;;;25.10;;
727;SDS011;347;48.780;9.158;2022-07-29T12:17:37;26.63;;;25.33;;
727;SDS011;347;48.780;9.158;2022-07-29T12:20:04;26.93;;;25.23;;
727;SDS011;347;48.780;9.158;2022-07-29T12:22:31;25.83;;;24.63;;
727;SDS011;347;48.780;9.158;2022-07-29T12:25:03;25.80;;;24.60;;
727;SDS011;347;48.780;9.158;2022-07-29T12:27:30;24.87;;;23.53;;
727;SDS011;347;48.780;9.158;2022-07-29T12:32:35;24.23;;;22.70;;
727;SDS011;347;48.780;9.158;2022-07-29T12:35:25;22.63;;;21.60;;
727;SDS011;347;48.780;9.158;2022-07-29T12:37:50;21.93;;;20.77;;
727;SDS011;347;48.780;9.158;2022-07-29T12:40:17;23.30;;;22.00;;
727;SDS011;347;48.780;9.158;2022-07-29T12:45:36;22.47;;;21.07;;
727;SDS011;347;48.780;9.158;2022-07-29T12:48:03;22.23;;;21.23;;
727;SDS011;347;48.780;9.158;2022-07-29T12:50:30;22.63;;;21.43;;
727;SDS011;347;48.780;9.158;2022-07-29T12:53:18;22.40;;;21.30;;
727;SDS011;347;48.780;9.158;2022-07-29T12:55:44;21.37;;;20.40;;
727;SDS011;347;48.780;9.158;2022-07-29T13:04:01;22.17;;;21.17;;
727;SDS011;347;48.780;9.158;2022-07-29T13:06:36;22.77;;;21.67;;
727;SDS011;347;48.780;9.158;2022-07-29T13:09:04;21.10;;;20.20;;
727;SDS011;347;48.780;9.158;2022-07-29T13:11:38;20.93;;;19.93;;
727;SDS011;347;48.780;9.158;2022-07-29T13:14:11;21.40;;;20.30;;
727;SDS011;347;48.780;9.158;2022-07-29T13:19:43;21.80;;;20.63;;
727;SDS011;347;48.780;9.158;2022-07-29T13:22:12;33.97;;;23.33;;
727;SDS011;347;48.780;9.158;2022-07-29T13:24:55;22.00;;;20.90;;
727;SDS011;347;48.780;9.158;2022-07-29T13:27:29;22.33;;;21.20;;
727;SDS011;347;48.780;9.158;2022-07-29T13:29:57;21.73;;;20.57;;
727;SDS011;347;48.780;9.158;2022-07-29T13:32:25;20.90;;;19.70;;
727;SDS011;347;48.780;9.158;2022-07-29T13:34:52;21.30;;;20.00;;
727;SDS011;347;48.780;9.158;2022-07-29T13:37:19;22.20;;;21.10;;
727;SDS011;347;48.780;9.158;2022-07-29T13:39:47;22.20;;;21.00;;
727;SDS011;347;48.780;9.158;2022-07-29T13:42:13;20.90;;;19.90;;
727;SDS011;347;48.780;9.158;2022-07-29T13:44:39;24.10;;;23.00;;
727;SDS011;347;48.780;9.158;2022-07-29T13:47:12;23.60;;;22.40;;
727;SDS011;347;48.780;9.158;2022-07-29T13:49:41;22.07;;;20.80;;
727;SDS011;347;48.780;9.158;2022-07-29T13:52:06;22.80;;;21.47;;
727;SDS011;347;48.780;9.158;2022-07-29T13:54:32;24.30;;;22.90;;
727;SDS011;347;48.780;9.158;2022-07-29T13:57:02;24.80;;;23.60;;
727;SDS011;347;48.780;9.158;2022-07-29T13:59:28;23.40;;;22.40;;
727;SDS011;347;48.780;9.158;2022-07-29T14:01:54;23.77;;;22.67;;
727;SDS011;347;48.780;9.158;2022-07-29T14:04:20;24.17;;;22.97;;
727;SDS011;347;48.780;9.158;2022-07-29T14:06:51;24.83;;;23.30;;
727;SDS011;347;48.780;9.158;2022-07-29T14:09:17;23.23;;;22.03;;
727;SDS011;347;48.780;9.158;2022-07-29T14:11:42;23.50;;;22.50;;
727;SDS011;347;48.780;9.158;2022-07-29T14:14:08;23.10;;;21.80;;
727;SDS011;347;48.780;9.158;2022-07-29T14:16:35;24.57;;;23.37;;
727;SDS011;347;48.780;9.158;2022-07-29T14:19:01;23.60;;;22.60;;
727;SDS011;347;48.780;9.158;2022-07-29T14:21:27;24.13;;;23.00;;
727;SDS011;347;48.780;9.158;2022-07-29T14:23:53;22.60;;;21.50;;
727;SDS011;347;48.780;9.158;2022-07-29T14:26:20;24.23;;;22.93;;
727;SDS011;347;48.780;9.158;2022-07-29T14:28:46;23.80;;;22.70;;
727;SDS011;347;48.780;9.158;2022-07-29T14:31:13;23.33;;;21.87;;
727;SDS011;347;48.780;9.158;2022-07-29T14:33:39;24.60;;;23.33;;
727;SDS011;347;48.780;9.158;2022-07-29T14:36:06;25.10;;;23.80;;
727;SDS011;347;48.780;9.158;2022-07-29T14:38:31;23.43;;;22.33;;
727;SDS011;347;48.780;9.158;2022-07-29T14:40:57;24.37;;;23.03;;
727;SDS011;347;48.780;9.158;2022-07-29T14:43:23;23.07;;;22.03;;
727;SDS011;347;48.780;9.158;2022-07-29T14:45:48;23.23;;;22.23;;
727;SDS011;347;48.780;9.158;2022-07-29T14:48:14;22.87;;;21.70;;
727;SDS011;347;48.780;9.158;2022-07-29T14:50:40;23.10;;;21.63;;
727;SDS011;347;48.780;9.158;2022-07-29T14:53:06;23.70;;;22.53;;
727;SDS011;347;48.780;9.158;2022-07-29T14:55:31;21.50;;;20.40;;
727;SDS011;347;48.780;9.158;2022-07-29T14:57:57;22.27;;;21.30;;
727;SDS011;347;48.780;9.158;2022-07-29T15:00:24;23.70;;;22.50;;
727;SDS011;347;48.780;9.158;2022-07-29T15:02:50;22.10;;;20.80;;
727;SDS011;347;48.780;9.158;2022-07-29T15:05:16;22.33;;;21.33;;
727;SDS011;347;48.780;9.158;2022-07-29T15:07:42;23.33;;;21.80;;
727;SDS011;347;48.780;9.158;2022-07-29T15:10:08;22.97;;;21.97;;
727;SDS011;347;48.780;9.158;2022-07-29T15:12:34;24.00;;;23.00;;
727;SDS011;347;48.780;9.158;2022-07-29T15:15:00;21.80;;;20.80;;
727;SDS011;347;48.780;9.158;2022-07-29T15:17:29;23.40;;;22.10;;
727;SDS011;347;48.780;9.158;2022-07-29T15:19:55;23.30;;;22.00;;
727;SDS011;347;48.780;9.158;2022-07-29T15:22:21;24.13;;;22.63;;
727;SDS011;347;48.780;9.158;2022-07-29T15:24:46;23.73;;;22.33;;
727;SDS011;347;48.780;9.158;2022-07-29T15:27:12;25.07;;;23.63;;
727;SDS011;347;48.780;9.158;2022-07-29T15:29:42;24.87;;;23.67;;
727;SDS011;347;48.780;9.158;2022-07-29T15:32:08;23.40;;;22.23;;
727;SDS011;347;48.780;9.158;2022-07-29T15:34:34;25.57;;;24.20;;
727;SDS011;347;48.780;9.158;2022-07-29T15:37:00;23.77;;;22.53;;
727;SDS011;347;48.780;9.158;2022-07-29T15:39:26;23.90;;;22.70;;
727;SDS011;347;48.780;9.158;2022-07-29T15:41:52;23.40;;;22.10;;
727;SDS011;347;48.780;9.158;2022-07-29T15:44:18;22.83;;;21.73;;
727;SDS011;347;48.780;9.158;2022-07-29T15:46:49;24.10;;;23.00;;
727;SDS011;347;48.780;9.158;2022-07-29T15:51:59;26.20;;;24.90;;
727;SDS011;347;48.780;9.158;2022-07-29T15:54:27;24.87;;;23.70;;
727;SDS011;347;48.780;9.158;2022-07-29T15:56:56;25.43;;;24.03;;
727;SDS011;347;48.780;9.158;2022-07-29T15:59:22;25.83;;;24.63;;
727;SDS011;347;48.780;9.158;2022-07-29T16:01:48;24.73;;;23.70;;
727;SDS011;347;48.780;9.158;2022-07-29T16:04:15;23.93;;;22.83;;
727;SDS011;347;48.780;9.158;2022-07-29T16:06:41;23.70;;;22.50;;
727;SDS011;347;48.780;9.158;2022-07-29T16:09:14;24.40;;;22.90;;
727;SDS011;347;48.780;9.158;2022-07-29T16:11:41;24.73;;;23.23;;
727;SDS011;347;48.780;9.158;2022-07-29T16:14:07;24.80;;;23.43;;
727;SDS011;347;48.780;9.158;2022-07-29T16:16:34;24.20;;;22.87;;
727;SDS011;347;48.780;9.158;2022-07-29T16:19:00;23.50;;;22.30;;
727;SDS011;347;48.780;9.158;2022-07-29T16:21:29;24.57;;;23.27;;
727;SDS011;347;48.780;9.158;2022-07-29T16:23:56;24.10;;;22.80;;
727;SDS011;347;48.780;9.158;2022-07-29T16:26:23;25.10;;;23.90;;
727;SDS011;347;48.780;9.158;2022-07-29T16:28:49;25.47;;;24.37;;
727;SDS011;347;48.780;9.158;2022-07-29T16:31:15;26.83;;;25.63;;
727;SDS011;347;48.780;9.158;2022-07-29T16:33:42;25.70;;;24.50;;
727;SDS011;347;48.780;9.158;2022-07-29T16:36:08;25.03;;;23.73;;
727;SDS011;347;48.780;9.158;2022-07-29T16:38:34;23.90;;;22.80;;
727;SDS011;347;48.780;9.158;2022-07-29T16:41:00;23.87;;;22.67;;
727;SDS011;347;48.780;9.158;2022-07-29T16:43:26;23.77;;;22.37;;
727;SDS011;347;48.780;9.158;2022-07-29T16:45:51;25.60;;;24.20;;
727;SDS011;347;48.780;9.158;2022-07-29T16:48:18;24.43;;;23.13;;
727;SDS011;347;48.780;9.158;2022-07-29T16:50:43;25.20;;;23.87;;